Time;durP1;ratioP1;P1;durP2;ratioP2;P2;SDS_P1;SDS_P2;PMS_P1;PMS_P2;Temp;Humidity;BMP_temperature;BMP_pressure;BME280_temperature;BME280_humidity;BME280_pressure;Samples;Min_cycle;Max_cycle;Signal;HPM_P1;HPM_P2
2021/12/10 00:01:10;;;;;;;20.50;13.25;;;;;;;5.10;82.24;99749.75;7390013;19;20021;-59
2021/12/10 00:03:47;;;;;;;20.25;13.57;;;;;;;5.10;81.90;99745.41;7391410;19;20021;-55
2021/12/10 00:06:18;;;;;;;26.75;14.50;;;;;;;5.07;81.45;99745.50;7390125;19;20018;-53
2021/12/10 00:08:53;;;;;;;23.38;13.13;;;;;;;5.06;81.40;99738.66;7391775;19;20020;-53
2021/12/10 00:11:27;;;;;;;24.67;13.98;;;;;;;5.02;81.49;99732.72;7395185;19;20010;-52
2021/12/10 00:13:57;;;;;;;26.52;14.55;;;;;;;4.96;81.39;99722.56;7393830;19;20010;-52
2021/12/10 00:16:26;;;;;;;22.58;13.88;;;;;;;4.93;81.59;99720.09;7392203;19;20018;-53
2021/12/10 00:19:11;;;;;;;24.15;14.43;;;;;;;4.92;81.65;99721.00;7391470;19;20010;-52
2021/12/10 00:21:41;;;;;;;25.73;14.23;;;;;;;4.90;81.89;99711.56;7390452;19;20042;-55
2021/12/10 00:24:10;;;;;;;23.73;14.75;;;;;;;4.82;81.55;99702.34;7389292;19;20039;-56
2021/12/10 00:26:40;;;;;;;24.77;14.82;;;;;;;4.83;81.76;99704.03;7389595;19;20086;-58
2021/12/10 00:29:10;;;;;;;26.63;14.20;;;;;;;4.83;81.81;99685.03;7387340;19;20018;-55
2021/12/10 00:31:48;;;;;;;25.88;15.00;;;;;;;4.77;81.28;99682.66;7388838;19;20018;-55
2021/12/10 00:34:25;;;;;;;21.50;15.30;;;;;;;4.75;81.33;99676.69;7388972;19;20033;-56
2021/12/10 00:36:56;;;;;;;23.13;14.88;;;;;;;4.75;81.77;99666.31;7388205;19;20015;-51
2021/12/10 00:39:27;;;;;;;23.20;14.85;;;;;;;4.76;81.69;99673.22;7387219;19;20015;-56
2021/12/10 00:41:58;;;;;;;28.08;15.60;;;;;;;4.79;81.74;99670.47;7389060;19;20030;-56
2021/12/10 00:44:27;;;;;;;26.13;14.98;;;;;;;4.80;81.38;99670.41;7387619;19;20029;-57
2021/12/10 00:46:56;;;;;;;21.88;14.75;;;;;;;4.81;81.27;99671.25;7390927;19;20007;-57
2021/12/10 00:49:28;;;;;;;30.08;16.00;;;;;;;4.76;81.07;99671.44;7400816;19;20020;-53
2021/12/10 00:51:57;;;;;;;25.25;15.43;;;;;;;4.70;81.25;99663.91;7402698;19;20019;-57
2021/12/10 00:54:26;;;;;;;26.17;15.55;;;;;;;4.71;81.44;99660.38;7402410;19;20413;-52
2021/12/10 00:56:55;;;;;;;25.63;15.00;;;;;;;4.67;81.35;99656.22;7403060;19;20126;-56
2021/12/10 00:59:24;;;;;;;23.63;15.27;;;;;;;4.68;81.47;99651.00;7401210;19;20089;-56
2021/12/10 01:01:54;;;;;;;24.45;14.93;;;;;;;4.71;81.26;99651.75;7402332;19;20014;-59
2021/12/10 01:04:26;;;;;;;24.88;15.40;;;;;;;4.68;81.18;99638.03;7403325;19;20021;-55
2021/12/10 01:07:00;;;;;;;21.38;14.77;;;;;;;4.70;81.46;99645.75;7404793;19;20014;-52
2021/12/10 01:09:34;;;;;;;26.05;15.77;;;;;;;4.67;81.20;99632.88;7403457;19;20019;-53
2021/12/10 01:12:07;;;;;;;25.60;16.13;;;;;;;4.65;81.16;99624.31;7403740;19;20021;-56
2021/12/10 01:14:55;;;;;;;24.60;15.68;;;;;;;4.71;81.53;99620.63;7404004;19;20480;-53
2021/12/10 01:25:51;;;;;;;21.67;14.95;;;;;;;4.63;81.67;99605.38;7403486;19;20014;-57
2021/12/10 01:28:20;;;;;;;24.50;15.07;;;;;;;4.66;81.70;99613.88;7403283;19;20022;-56
2021/12/10 01:30:50;;;;;;;29.10;16.02;;;;;;;4.66;81.40;99619.06;7401218;19;20062;-52
2021/12/10 01:33:20;;;;;;;22.35;15.20;;;;;;;4.67;81.14;99612.09;7399936;19;20010;-57
2021/12/10 01:35:54;;;;;;;26.25;16.13;;;;;;;4.66;81.25;99611.28;7401530;19;20006;-55
2021/12/10 01:38:27;;;;;;;23.58;15.25;;;;;;;4.67;81.20;99599.13;7401758;19;20014;-54
2021/12/10 01:41:00;;;;;;;23.63;15.43;;;;;;;4.64;80.98;99588.88;7403118;19;20062;-51
2021/12/10 01:43:34;;;;;;;24.98;14.93;;;;;;;4.63;80.91;99593.22;7402345;19;20022;-59
2021/12/10 01:46:09;;;;;;;29.15;17.05;;;;;;;4.56;80.63;99585.75;7401282;19;20022;-56
2021/12/10 01:48:41;;;;;;;23.55;15.45;;;;;;;4.53;80.79;99580.66;7401344;19;20022;-52
2021/12/10 01:51:12;;;;;;;29.25;15.93;;;;;;;4.43;80.63;99583.63;7400018;19;20494;-52
2021/12/10 01:53:46;;;;;;;27.17;16.23;;;;;;;4.41;80.91;99575.06;7398798;19;20021;-56
2021/12/10 01:56:18;;;;;;;30.05;17.08;;;;;;;4.40;81.34;99580.31;7402543;19;20025;-57
2021/12/10 01:58:48;;;;;;;23.88;16.10;;;;;;;4.33;81.19;99572.78;7394423;19;20093;-56
2021/12/10 02:01:28;;;;;;;27.25;15.23;;;;;;;4.31;81.46;99563.34;7393238;19;20015;-57
2021/12/10 02:03:58;;;;;;;27.63;15.82;;;;;;;4.27;81.50;99562.66;7393599;19;20025;-55
2021/12/10 02:06:27;;;;;;;21.65;14.90;;;;;;;4.24;81.83;99557.59;7392504;19;20131;-56
2021/12/10 02:08:58;;;;;;;24.13;15.77;;;;;;;4.20;81.79;99558.59;7392100;19;20025;-56
2021/12/10 02:11:27;;;;;;;24.15;15.80;;;;;;;4.18;81.60;99551.78;7393797;19;20490;-55
2021/12/10 02:13:56;;;;;;;25.77;15.40;;;;;;;4.15;81.50;99543.22;7393516;19;20021;-55
2021/12/10 02:16:26;;;;;;;23.50;15.20;;;;;;;4.14;81.66;99536.34;7392224;19;20018;-57
2021/12/10 02:18:55;;;;;;;27.80;15.85;;;;;;;4.10;81.49;99528.75;7391500;19;20374;-56
2021/12/10 02:21:30;;;;;;;22.88;15.07;;;;;;;4.07;81.53;99527.13;7395388;19;20049;-53
2021/12/10 02:24:01;;;;;;;24.80;14.85;;;;;;;4.08;81.95;99522.78;7393248;19;20014;-57
2021/12/10 02:26:33;;;;;;;23.25;14.63;;;;;;;4.07;81.94;99519.34;7391747;19;20073;-54
2021/12/10 02:29:03;;;;;;;23.80;15.57;;;;;;;4.04;82.08;99513.41;7391494;19;20015;-54
2021/12/10 02:31:32;;;;;;;23.35;15.20;;;;;;;3.99;81.78;99511.00;7389877;19;20020;-55
2021/12/10 02:34:02;;;;;;;20.35;13.25;;;;;;;3.95;81.84;99499.94;7392187;19;20032;-53
2021/12/10 02:36:39;;;;;;;22.70;14.38;;;;;;;3.91;81.69;99492.31;7391025;19;20027;-56
2021/12/10 02:39:08;;;;;;;22.30;14.40;;;;;;;3.90;81.93;99486.28;7392736;19;20019;-60
2021/12/10 02:41:37;;;;;;;23.45;13.68;;;;;;;3.87;81.81;99491.59;7398245;19;20007;-55
2021/12/10 02:44:08;;;;;;;21.85;14.38;;;;;;;3.85;81.89;99483.03;7394665;19;20078;-56
2021/12/10 02:46:37;;;;;;;22.92;14.30;;;;;;;3.83;81.63;99476.22;7394043;19;20347;-56
2021/12/10 02:49:07;;;;;;;22.15;14.05;;;;;;;3.81;81.90;99471.94;7391916;19;20140;-60
2021/12/10 02:51:39;;;;;;;23.90;12.40;;;;;;;3.79;81.96;99458.19;7391953;19;20025;-56
2021/12/10 02:54:11;;;;;;;25.15;12.90;;;;;;;3.77;81.85;99454.00;7394656;19;20077;-59
2021/12/10 02:56:41;;;;;;;18.88;12.27;;;;;;;3.77;82.11;99448.81;7394142;19;20011;-57
2021/12/10 02:59:11;;;;;;;20.77;11.45;;;;;;;3.75;82.14;99446.25;7393317;19;20018;-61
2021/12/10 03:01:44;;;;;;;18.50;11.88;;;;;;;3.75;81.99;99438.47;7392095;19;20010;-60
2021/12/10 03:04:14;;;;;;;21.27;11.63;;;;;;;3.77;82.01;99435.84;7393059;19;20020;-54
2021/12/10 03:06:50;;;;;;;17.98;11.98;;;;;;;3.77;81.95;99441.03;7393267;19;20448;-57
2021/12/10 03:09:20;;;;;;;19.50;13.27;;;;;;;3.75;82.05;99427.28;7392875;19;20025;-59
2021/12/10 03:11:49;;;;;;;21.10;13.13;;;;;;;3.73;82.04;99424.75;7393452;19;20014;-59
2021/12/10 03:14:20;;;;;;;23.92;14.18;;;;;;;3.70;81.80;99421.44;7391603;19;20763;-54
2021/12/10 03:16:52;;;;;;;25.90;14.10;;;;;;;3.64;81.60;99428.53;7390860;19;20082;-58
2021/12/10 03:19:21;;;;;;;16.50;11.65;;;;;;;3.61;81.82;99426.06;7392786;19;20471;-57
2021/12/10 03:21:53;;;;;;;21.58;13.32;;;;;;;3.55;81.62;99418.53;7391782;19;20352;-54
2021/12/10 03:24:28;;;;;;;23.52;13.60;;;;;;;3.54;81.77;99408.22;7393259;19;20337;-54
2021/12/10 03:27:01;;;;;;;21.10;12.90;;;;;;;3.52;81.93;99394.50;7392265;19;20025;-60
2021/12/10 03:29:31;;;;;;;19.85;12.55;;;;;;;3.54;82.06;99398.72;7391942;19;20030;-53
2021/12/10 03:32:04;;;;;;;19.10;12.45;;;;;;;3.52;82.15;99395.34;7393128;19;20018;-55
2021/12/10 03:34:33;;;;;;;20.17;11.55;;;;;;;3.50;82.14;99402.34;7392514;19;20033;-62
2021/12/10 03:37:06;;;;;;;20.35;11.95;;;;;;;3.49;82.06;99392.03;7392228;19;20400;-60
2021/12/10 03:39:36;;;;;;;17.88;11.13;;;;;;;3.45;81.91;99383.53;7390552;19;20018;-58
2021/12/10 03:42:08;;;;;;;17.83;10.82;;;;;;;3.45;81.92;99381.81;7390851;19;20014;-58
2021/12/10 03:44:39;;;;;;;17.97;10.97;;;;;;;3.43;81.89;99380.16;7392896;19;20020;-58
2021/12/10 03:47:10;;;;;;;18.13;11.45;;;;;;;3.36;81.92;99376.94;7391286;19;20011;-58
2021/12/10 03:49:42;;;;;;;15.80;10.40;;;;;;;3.37;82.00;99370.88;7391000;19;20011;-57
2021/12/10 03:52:13;;;;;;;19.77;11.63;;;;;;;3.39;82.22;99363.88;7392255;19;20411;-54
2021/12/10 03:54:45;;;;;;;18.30;10.93;;;;;;;3.35;81.95;99357.13;7392166;19;20028;-58
2021/12/10 03:57:13;;;;;;;15.38;11.10;;;;;;;3.40;82.10;99357.81;7391209;19;20312;-58
2021/12/10 03:59:42;;;;;;;18.92;11.48;;;;;;;3.44;81.94;99355.97;7390294;19;20011;-59
2021/12/10 04:02:12;;;;;;;17.65;11.15;;;;;;;3.42;81.93;99350.81;7392096;19;20078;-58
2021/12/10 04:04:44;;;;;;;16.27;10.63;;;;;;;3.43;81.95;99349.09;7390361;19;20073;-56
2021/12/10 04:07:19;;;;;;;16.00;10.23;;;;;;;3.40;81.77;99342.28;7391791;19;20029;-63
2021/12/10 04:09:48;;;;;;;16.27;9.77;;;;;;;3.36;81.72;99340.72;7391244;19;20459;-55
2021/12/10 04:12:19;;;;;;;15.27;10.45;;;;;;;3.32;81.61;99351.25;7390286;19;20014;-58
2021/12/10 04:14:50;;;;;;;16.27;10.18;;;;;;;3.36;81.87;99343.28;7391607;19;20052;-57
2021/12/10 04:17:21;;;;;;;15.23;9.40;;;;;;;3.41;81.99;99335.34;7391247;19;20336;-56
2021/12/10 04:19:52;;;;;;;15.20;9.13;;;;;;;3.44;81.88;99324.91;7390339;19;20014;-58
2021/12/10 04:22:32;;;;;;;15.73;9.32;;;;;;;3.48;81.73;99323.84;7391601;19;20368;-61
2021/12/10 04:25:01;;;;;;;14.50;8.90;;;;;;;3.41;81.42;99323.25;7394036;19;20014;-62
2021/12/10 04:27:30;;;;;;;13.35;7.97;;;;;;;3.39;81.09;99314.69;7400157;19;20527;-61
2021/12/10 04:29:59;;;;;;;16.27;8.52;;;;;;;3.40;81.08;99315.56;7405679;19;20046;-60
2021/12/10 04:32:29;;;;;;;13.52;8.10;;;;;;;3.34;80.86;99308.00;7416929;19;20032;-61
2021/12/10 04:34:58;;;;;;;16.05;8.40;;;;;;;3.35;80.91;99300.19;7414612;19;20019;-59
2021/12/10 04:37:30;;;;;;;12.48;8.02;;;;;;;3.37;80.63;99297.56;7413823;19;20011;-61
2021/12/10 04:40:02;;;;;;;13.63;7.45;;;;;;;3.38;80.66;99299.22;7404035;19;20010;-56
2021/12/10 04:42:31;;;;;;;;;;;;;;;3.37;80.41;99293.22;7396637;19;20026;-57
2021/12/10 04:45:02;;;;;;;14.05;7.20;;;;;;;3.34;80.45;99292.47;7393316;19;19974;-54
2021/12/10 04:47:33;;;;;;;15.32;7.50;;;;;;;3.32;80.19;99286.53;7390314;19;20067;-52
2021/12/10 04:50:03;;;;;;;12.18;7.30;;;;;;;3.32;80.44;99284.78;7389280;19;20493;-56
2021/12/10 04:52:35;;;;;;;13.25;7.80;;;;;;;3.32;80.28;99273.59;7390739;19;20313;-58
2021/12/10 04:55:06;;;;;;;;;;;;;;;3.33;80.48;99275.28;7390713;19;20021;-58
2021/12/10 04:57:35;;;;;;;11.68;6.80;;;;;;;3.34;80.53;99269.16;7389527;19;19918;-57
2021/12/10 05:00:06;;;;;;;13.40;7.07;;;;;;;3.36;80.04;99259.63;7388384;19;20025;-54
2021/12/10 05:02:36;;;;;;;11.57;6.97;;;;;;;3.38;79.95;99253.47;7391046;19;20842;-59
2021/12/10 05:05:08;;;;;;;13.57;7.43;;;;;;;3.41;79.80;99248.16;7390970;19;20011;-58
2021/12/10 05:07:39;;;;;;;15.77;7.75;;;;;;;3.37;79.50;99241.44;7389166;19;20006;-56
2021/12/10 05:10:11;;;;;;;12.70;8.25;;;;;;;3.40;79.81;99248.25;7389026;19;20099;-59
2021/12/10 05:12:41;;;;;;;18.30;9.17;;;;;;;3.35;79.37;99232.88;7390756;19;20007;-60
2021/12/10 05:15:13;;;;;;;19.20;8.93;;;;;;;3.36;79.48;99231.13;7390803;19;20083;-52
2021/12/10 05:17:43;;;;;;;20.10;9.27;;;;;;;3.35;79.28;99224.25;7392749;19;20028;-55
2021/12/10 05:20:17;;;;;;;18.58;9.15;;;;;;;3.34;79.51;99223.44;7389168;19;20014;-59
2021/12/10 05:22:51;;;;;;;15.85;8.77;;;;;;;3.36;79.65;99225.97;7391358;19;20074;-56
2021/12/10 05:25:21;;;;;;;15.82;9.00;;;;;;;3.36;79.65;99224.19;7392077;19;20022;-53
2021/12/10 05:27:51;;;;;;;15.15;8.65;;;;;;;3.37;79.62;99218.13;7391728;19;20010;-53
2021/12/10 05:30:23;;;;;;;19.95;9.13;;;;;;;3.37;79.55;99215.53;7388204;19;20014;-56
2021/12/10 05:32:52;;;;;;;13.48;8.18;;;;;;;3.36;79.42;99210.44;7389501;19;20039;-56
2021/12/10 05:35:21;;;;;;;15.70;8.13;;;;;;;3.34;79.15;99209.63;7395217;19;20074;-55
2021/12/10 05:37:53;;;;;;;16.08;8.50;;;;;;;3.34;79.10;99212.22;7395904;19;20007;-50
2021/12/10 05:40:23;;;;;;;15.82;8.40;;;;;;;3.35;79.28;99201.78;7394027;19;20010;-59
2021/12/10 05:42:52;;;;;;;17.27;8.02;;;;;;;3.36;79.12;99194.88;7396426;19;20025;-57
2021/12/10 05:45:24;;;;;;;14.65;7.65;;;;;;;3.36;79.33;99195.72;7396376;19;20169;-59
2021/12/10 05:47:54;;;;;;;15.73;7.82;;;;;;;3.35;79.14;99194.03;7396611;19;20104;-58
2021/12/10 05:50:27;;;;;;;14.57;7.85;;;;;;;3.35;79.23;99188.03;7393703;19;20053;-56
2021/12/10 05:52:59;;;;;;;15.10;7.43;;;;;;;3.36;79.29;99181.94;7397221;19;20018;-59
2021/12/10 05:55:29;;;;;;;16.13;8.27;;;;;;;3.38;79.10;99190.47;7397284;19;20022;-57
2021/12/10 05:57:58;;;;;;;11.57;7.35;;;;;;;3.41;79.35;99192.94;7395597;19;20018;-61
2021/12/10 06:00:34;;;;;;;13.18;7.25;;;;;;;3.41;78.96;99187.75;7393818;19;20102;-56
2021/12/10 06:03:03;;;;;;;15.65;7.35;;;;;;;3.36;78.74;99180.19;7394162;19;20011;-59
2021/12/10 06:05:34;;;;;;;16.52;7.38;;;;;;;3.39;79.02;99182.66;7394551;19;20018;-60
2021/12/10 06:08:07;;;;;;;14.70;7.30;;;;;;;3.41;79.05;99178.25;7394789;19;20017;-57
2021/12/10 06:10:37;;;;;;;11.98;6.63;;;;;;;3.47;79.40;99175.41;7393659;19;20015;-58
2021/12/10 06:13:07;;;;;;;14.15;6.78;;;;;;;3.50;79.21;99160.66;7395699;19;20049;-60
2021/12/10 06:15:37;;;;;;;14.27;5.93;;;;;;;3.51;78.85;99170.97;7395836;19;20045;-59
2021/12/10 06:18:06;;;;;;;11.70;5.40;;;;;;;3.52;78.67;99162.25;7394743;19;20011;-59
2021/12/10 06:20:39;;;;;;;12.95;6.03;;;;;;;3.52;78.59;99161.44;7393153;19;20069;-60
2021/12/10 06:23:11;;;;;;;11.90;5.30;;;;;;;3.56;78.78;99157.81;7395894;19;20486;-60
2021/12/10 06:25:45;;;;;;;13.37;5.57;;;;;;;3.55;78.67;99143.16;7395184;19;20007;-58
2021/12/10 06:28:14;;;;;;;11.77;5.20;;;;;;;3.58;78.52;99151.66;7395196;19;20011;-58
2021/12/10 06:30:45;;;;;;;11.90;5.40;;;;;;;3.62;78.77;99150.63;7393260;19;20478;-61
2021/12/10 06:33:17;;;;;;;13.45;5.47;;;;;;;3.64;78.79;99148.81;7393059;19;20067;-58
2021/12/10 06:35:48;;;;;;;12.55;5.40;;;;;;;3.61;78.61;99145.50;7394878;19;20015;-60
2021/12/10 06:38:21;;;;;;;12.60;5.57;;;;;;;3.62;78.58;99145.47;7395047;19;20510;-58
2021/12/10 06:40:55;;;;;;;10.75;5.13;;;;;;;3.59;78.32;99144.72;7395037;19;20076;-61
2021/12/10 06:43:24;;;;;;;11.05;4.93;;;;;;;3.61;78.19;99150.66;7394844;19;20014;-56
2021/12/10 06:45:54;;;;;;;13.77;5.25;;;;;;;3.59;77.78;99147.31;7393082;19;20014;-59
2021/12/10 06:48:26;;;;;;;12.23;5.85;;;;;;;3.63;77.96;99148.88;7394743;19;20487;-58
2021/12/10 06:50:59;;;;;;;14.07;5.50;;;;;;;3.60;77.71;99155.03;7392174;19;20018;-60
2021/12/10 06:53:32;;;;;;;13.25;5.93;;;;;;;3.56;77.82;99152.63;7392755;19;20030;-58
2021/12/10 06:56:03;;;;;;;13.73;5.90;;;;;;;3.56;77.93;99147.47;7394279;19;20045;-58
2021/12/10 06:58:34;;;;;;;12.73;5.78;;;;;;;3.56;77.95;99144.88;7395140;19;20475;-59
2021/12/10 07:01:11;;;;;;;16.27;6.90;;;;;;;3.58;77.96;99143.03;7394158;19;20022;-61
2021/12/10 07:03:42;;;;;;;13.95;5.63;;;;;;;3.63;78.30;99143.69;7393029;19;20014;-57
2021/12/10 07:06:11;;;;;;;13.63;6.00;;;;;;;3.61;78.05;99143.75;7394336;19;20010;-57
2021/12/10 07:08:46;;;;;;;15.75;5.90;;;;;;;3.63;77.97;99144.53;7392293;19;20045;-58
2021/12/10 07:11:17;;;;;;;12.13;5.70;;;;;;;3.63;77.96;99146.28;7394388;19;20481;-57
2021/12/10 07:13:48;;;;;;;11.63;5.60;;;;;;;3.65;78.08;99152.22;7394384;19;20015;-60
2021/12/10 07:16:20;;;;;;;15.63;5.97;;;;;;;3.63;78.28;99152.28;7394081;19;20804;-58
2021/12/10 07:18:49;;;;;;;11.18;5.93;;;;;;;3.65;78.31;99144.47;7393580;19;20153;-60
2021/12/10 07:21:18;;;;;;;12.18;5.57;;;;;;;3.66;78.39;99145.31;7394482;19;20015;-58
2021/12/10 07:23:50;;;;;;;14.40;5.50;;;;;;;3.60;77.83;99144.66;7394126;19;20007;-58
2021/12/10 07:26:20;;;;;;;10.55;5.75;;;;;;;3.60;78.00;99144.66;7392716;19;20014;-57
2021/12/10 07:28:49;;;;;;;11.98;5.88;;;;;;;3.62;77.94;99144.59;7391747;19;20018;-54
2021/12/10 07:31:18;;;;;;;13.38;5.70;;;;;;;3.53;77.64;99148.41;7393348;19;20015;-57
2021/12/10 07:33:47;;;;;;;14.73;5.65;;;;;;;3.51;77.94;99146.78;7394350;19;20129;-57
2021/12/10 07:36:16;;;;;;;12.80;5.07;;;;;;;3.55;78.06;99144.00;7392909;19;20014;-55
2021/12/10 07:38:47;;;;;;;15.40;5.72;;;;;;;3.53;78.03;99147.59;7393119;19;20006;-59
2021/12/10 07:41:18;;;;;;;10.40;5.30;;;;;;;3.56;78.04;99150.03;7394236;19;20037;-59
2021/12/10 07:43:47;;;;;;;13.40;5.78;;;;;;;3.58;78.30;99150.81;7393454;19;20361;-58
2021/12/10 07:46:17;;;;;;;10.32;5.20;;;;;;;3.62;78.43;99149.78;7390297;19;20613;-57
2021/12/10 07:48:48;;;;;;;12.88;5.25;;;;;;;3.57;77.92;99152.56;7391170;19;20015;-60
2021/12/10 07:51:21;;;;;;;12.15;5.43;;;;;;;3.60;78.13;99154.19;7391217;19;20074;-59
2021/12/10 07:53:51;;;;;;;12.27;5.50;;;;;;;3.51;77.51;99158.00;7393872;19;20228;-57
2021/12/10 07:56:24;;;;;;;12.73;5.28;;;;;;;3.55;78.13;99151.78;7388759;19;20031;-56
2021/12/10 07:58:52;;;;;;;11.73;5.30;;;;;;;3.61;78.22;99143.75;7391596;19;20022;-56
2021/12/10 08:01:28;;;;;;;11.43;5.63;;;;;;;3.62;78.01;99150.63;7393381;19;20010;-60
2021/12/10 08:04:00;;;;;;;13.88;5.88;;;;;;;3.61;77.67;99145.50;7390751;19;20033;-61
2021/12/10 08:06:30;;;;;;;13.15;5.78;;;;;;;3.64;77.73;99154.00;7393228;19;20029;-58
2021/12/10 08:08:59;;;;;;;13.63;5.35;;;;;;;3.71;77.81;99156.31;7392277;19;20051;-59
2021/12/10 08:11:31;;;;;;;10.10;4.70;;;;;;;3.66;77.67;99161.69;7393320;19;20014;-59
2021/12/10 08:14:00;;;;;;;12.95;5.78;;;;;;;3.67;77.49;99155.63;7394330;19;20034;-59
2021/12/10 08:16:30;;;;;;;10.98;5.07;;;;;;;3.69;77.71;99160.72;7390592;19;20031;-58
2021/12/10 08:18:59;;;;;;;14.10;5.57;;;;;;;3.69;77.36;99156.38;7392709;19;20011;-62
2021/12/10 08:21:28;;;;;;;13.50;5.22;;;;;;;3.62;77.01;99161.00;7395179;19;20026;-59
2021/12/10 08:23:57;;;;;;;12.15;5.65;;;;;;;3.69;77.33;99163.31;7396517;19;20104;-58
2021/12/10 08:26:26;;;;;;;14.43;6.50;;;;;;;3.72;77.34;99169.19;7391981;19;20371;-58
2021/12/10 08:28:58;;;;;;;12.45;5.65;;;;;;;3.69;77.13;99158.13;7390938;19;20078;-58
2021/12/10 08:31:28;;;;;;;10.90;5.10;;;;;;;3.73;77.52;99160.53;7390547;19;20021;-59
2021/12/10 08:33:58;;;;;;;10.27;5.82;;;;;;;3.76;77.26;99164.72;7390094;19;20021;-59
2021/12/10 08:36:28;;;;;;;8.77;4.72;;;;;;;3.79;77.47;99156.81;7391071;19;20018;-59
2021/12/10 08:38:57;;;;;;;9.65;5.30;;;;;;;3.80;77.36;99155.94;7390828;19;20452;-57
2021/12/10 08:41:31;;;;;;;14.00;6.10;;;;;;;3.79;77.17;99157.66;7392018;19;20021;-58
2021/12/10 08:44:03;;;;;;;11.68;5.57;;;;;;;3.86;77.12;99162.59;7392676;19;20030;-58
2021/12/10 08:46:32;;;;;;;12.95;6.22;;;;;;;3.89;76.99;99165.88;7391671;19;20108;-55
2021/12/10 08:49:01;;;;;;;15.15;6.07;;;;;;;3.92;77.04;99164.91;7390083;19;20017;-60
2021/12/10 08:51:34;;;;;;;12.77;5.90;;;;;;;3.95;76.98;99160.44;7391346;19;20019;-60
2021/12/10 08:54:03;;;;;;;15.40;6.05;;;;;;;3.97;76.68;99165.56;7389537;19;20022;-60
2021/12/10 08:56:32;;;;;;;14.10;6.35;;;;;;;3.89;75.94;99159.88;7390718;19;20022;-56
2021/12/10 08:59:03;;;;;;;9.82;5.60;;;;;;;3.95;76.37;99169.94;7391052;19;20025;-57
2021/12/10 09:01:37;;;;;;;12.15;5.35;;;;;;;3.99;76.70;99172.34;7391881;19;20019;-61
2021/12/10 09:04:09;;;;;;;11.60;5.93;;;;;;;4.06;77.20;99172.91;7390718;19;20013;-59
2021/12/10 09:06:42;;;;;;;10.67;5.30;;;;;;;4.05;76.15;99175.56;7390414;19;20022;-56
2021/12/10 09:09:14;;;;;;;14.88;6.07;;;;;;;4.01;76.03;99169.66;7394548;19;20787;-61
2021/12/10 09:11:46;;;;;;;13.80;5.80;;;;;;;4.04;76.19;99176.47;7396106;19;20022;-60
2021/12/10 09:14:18;;;;;;;12.45;5.60;;;;;;;4.04;75.99;99179.94;7396786;19;20419;-58
2021/12/10 09:16:47;;;;;;;16.43;6.53;;;;;;;4.02;75.92;99186.09;7397443;19;20052;-59
2021/12/10 09:19:17;;;;;;;13.65;6.00;;;;;;;4.04;75.85;99179.94;7395393;19;20010;-60
2021/12/10 09:21:47;;;;;;;11.75;5.63;;;;;;;4.08;75.99;99178.84;7394936;19;20030;-61
2021/12/10 09:24:20;;;;;;;13.15;5.25;;;;;;;4.13;75.68;99183.88;7397960;19;20341;-60
2021/12/10 09:26:53;;;;;;;14.55;5.75;;;;;;;4.17;75.45;99177.63;7397394;19;20017;-57
2021/12/10 09:29:27;;;;;;;14.00;5.75;;;;;;;4.16;75.35;99178.53;7395984;19;20367;-61
2021/12/10 09:31:57;;;;;;;12.68;5.60;;;;;;;4.15;75.44;99179.44;7400661;19;20345;-57
2021/12/10 09:34:26;;;;;;;12.70;5.38;;;;;;;4.19;75.81;99180.16;7397636;19;20018;-57
2021/12/10 09:36:56;;;;;;;18.83;6.30;;;;;;;4.13;74.94;99171.72;7396131;19;20021;-60
2021/12/10 09:39:25;;;;;;;13.05;5.78;;;;;;;4.18;75.40;99179.31;7395599;19;20016;-58
2021/12/10 09:41:55;;;;;;;12.98;5.20;;;;;;;4.27;75.71;99183.22;7395311;19;20014;-60
2021/12/10 09:44:27;;;;;;;12.18;5.68;;;;;;;4.26;75.12;99177.22;7398517;19;20025;-59
2021/12/10 09:46:57;;;;;;;12.90;4.97;;;;;;;4.33;75.04;99176.03;7396079;19;20010;-55
2021/12/10 09:49:27;;;;;;;10.30;5.00;;;;;;;4.35;74.77;99175.97;7396904;19;20040;-57
2021/12/10 09:51:58;;;;;;;10.43;5.00;;;;;;;4.40;75.20;99176.59;7397388;19;20015;-61
2021/12/10 09:54:30;;;;;;;11.77;5.45;;;;;;;4.40;75.05;99176.59;7396766;19;20010;-61
2021/12/10 09:57:06;;;;;;;13.00;5.30;;;;;;;4.40;74.89;99189.56;7393297;19;20357;-57
2021/12/10 09:59:38;;;;;;;11.35;5.45;;;;;;;4.39;74.83;99185.28;7394991;19;20020;-60
2021/12/10 10:02:08;;;;;;;9.38;5.18;;;;;;;4.39;75.14;99182.69;7394294;19;20021;-61
2021/12/10 10:04:40;;;;;;;11.55;5.15;;;;;;;4.40;75.27;99184.38;7393879;19;20025;-56
2021/12/10 10:07:13;;;;;;;15.05;5.68;;;;;;;4.47;75.45;99187.50;7393334;19;20029;-60
2021/12/10 10:09:46;;;;;;;11.90;5.43;;;;;;;4.47;74.82;99185.78;7394713;19;20018;-61
2021/12/10 10:12:20;;;;;;;11.40;4.93;;;;;;;4.45;74.31;99187.59;7393854;19;20062;-60
2021/12/10 10:14:52;;;;;;;11.07;5.13;;;;;;;4.49;74.54;99193.50;7393546;19;20018;-60
2021/12/10 10:17:22;;;;;;;11.65;5.53;;;;;;;4.52;74.59;99185.56;7392954;19;20036;-59
2021/12/10 10:19:54;;;;;;;11.45;5.40;;;;;;;4.59;75.05;99183.53;7392195;19;20015;-60
2021/12/10 10:22:29;;;;;;;11.98;4.90;;;;;;;4.59;74.42;99174.00;7395913;19;20026;-61
2021/12/10 10:24:59;;;;;;;13.45;4.68;;;;;;;4.59;74.01;99179.19;7393601;19;20022;-60
2021/12/10 10:27:31;;;;;;;11.80;4.75;;;;;;;4.55;73.84;99184.59;7392933;19;20011;-61
2021/12/10 10:30:09;;;;;;;12.25;4.72;;;;;;;4.58;74.42;99182.69;7389573;19;20355;-61
2021/12/10 10:32:42;;;;;;;11.95;5.07;;;;;;;4.64;74.70;99179.81;7395151;19;20515;-56
2021/12/10 10:35:17;;;;;;;14.80;4.80;;;;;;;4.68;74.73;99180.50;7397220;19;20018;-58
2021/12/10 10:37:48;;;;;;;10.52;4.25;;;;;;;4.72;75.16;99189.84;7393122;19;20025;-60
2021/12/10 10:40:21;;;;;;;11.73;5.05;;;;;;;4.76;75.14;99188.78;7393518;19;20011;-61
2021/12/10 10:42:52;;;;;;;10.20;4.70;;;;;;;4.79;74.83;99185.22;7393424;19;20011;-60
2021/12/10 10:45:27;;;;;;;11.10;4.35;;;;;;;4.82;74.80;99178.09;7392839;19;20010;-60
2021/12/10 10:47:57;;;;;;;9.55;3.90;;;;;;;4.87;74.78;99174.47;7391954;19;20014;-59
2021/12/10 10:50:30;;;;;;;10.60;4.00;;;;;;;4.90;74.21;99175.16;7392330;19;20030;-60
2021/12/10 10:53:02;;;;;;;9.82;4.20;;;;;;;4.91;73.39;99169.03;7349535;19;20071;-61
2021/12/10 10:55:34;;;;;;;7.47;3.33;;;;;;;4.90;72.64;99171.72;7392556;19;20011;-59
2021/12/10 10:58:06;;;;;;;9.43;3.63;;;;;;;4.95;72.89;99167.97;7393747;19;20018;-59
2021/12/10 11:00:44;;;;;;;;;;;;;;;4.95;72.50;99167.16;7394749;19;20033;-62
2021/12/10 11:03:21;;;;;;;11.05;4.00;;;;;;;4.96;73.04;99161.88;7392086;19;19918;-60
2021/12/10 11:05:55;;;;;;;11.63;4.30;;;;;;;5.05;73.94;99163.19;7393948;19;20483;-62
2021/12/10 11:08:30;;;;;;;12.35;4.55;;;;;;;5.09;73.45;99169.94;7394758;19;20019;-62
2021/12/10 11:11:15;;;;;;;13.32;4.55;;;;;;;5.15;73.33;99161.84;7392065;19;20082;-62
2021/12/10 11:13:46;;;;;;;8.50;3.70;;;;;;;5.17;72.57;99164.34;7392908;19;20010;-58
2021/12/10 11:16:20;;;;;;;7.85;3.35;;;;;;;5.16;71.99;99163.53;7392798;19;20014;-59
2021/12/10 11:18:53;;;;;;;10.13;3.75;;;;;;;5.15;72.47;99159.25;7391476;19;20014;-59
2021/12/10 11:21:38;;;;;;;9.63;4.15;;;;;;;5.15;72.25;99168.78;7391731;19;20017;-61
2021/12/10 11:24:19;;;;;;;10.20;3.83;;;;;;;5.21;72.87;99163.28;7391964;19;20021;-60
2021/12/10 11:26:54;;;;;;;9.93;3.90;;;;;;;5.25;72.68;99164.00;7393057;19;20011;-60
2021/12/10 11:29:47;;;;;;;9.20;3.55;;;;;;;5.23;72.02;99164.06;7389177;19;20014;-58
2021/12/10 11:32:22;;;;;;;9.48;3.65;;;;;;;5.24;72.41;99162.31;7394250;19;20007;-61
2021/12/10 11:34:55;;;;;;;7.85;3.65;;;;;;;5.27;72.51;99164.75;7392053;19;20081;-60
2021/12/10 11:37:57;;;;;;;11.55;3.88;;;;;;;5.32;73.08;99178.34;7393407;19;20010;-61
2021/12/10 11:40:41;;;;;;;12.98;4.50;;;;;;;5.33;72.11;99170.50;7391139;19;20018;-63
2021/12/10 11:43:31;;;;;;;14.18;3.70;;;;;;;5.34;71.81;99168.72;7393675;19;20025;-62
2021/12/10 11:46:27;;;;;;;11.65;3.28;;;;;;;5.30;70.79;99165.44;7390667;19;20476;-61
2021/12/10 11:49:07;;;;;;;8.18;3.38;;;;;;;5.33;71.25;99169.63;7392914;19;20085;-58
2021/12/10 11:51:39;;;;;;;10.07;3.65;;;;;;;5.34;71.05;99179.97;7393328;19;20014;-60
2021/12/10 11:54:18;;;;;;;7.70;3.75;;;;;;;5.37;70.97;99168.56;7392779;19;20356;-59
2021/12/10 11:56:49;;;;;;;7.63;3.58;;;;;;;5.39;70.97;99169.34;7392508;19;20010;-58
2021/12/10 11:59:21;;;;;;;8.35;3.55;;;;;;;5.41;70.91;99171.88;7391696;19;20034;-55
2021/12/10 12:01:55;;;;;;;7.43;3.53;;;;;;;5.40;70.74;99170.19;7391460;19;20363;-62